createdAt,value
2023-03-29T00:02:09.423Z,8.90
2023-03-29T00:04:39.049Z,12.52
2023-03-29T00:07:08.523Z,7.75
2023-03-29T00:09:37.571Z,7.13
2023-03-29T00:12:07.510Z,11.00
2023-03-29T00:14:36.631Z,7.82
2023-03-29T00:17:08.007Z,11.93
2023-03-29T00:19:37.196Z,8.70
2023-03-29T00:22:08.291Z,9.27
2023-03-29T00:24:37.502Z,7.90
2023-03-29T00:27:06.827Z,4.95
2023-03-29T00:29:35.977Z,7.28
2023-03-29T00:32:05.614Z,7.80
2023-03-29T00:34:37.067Z,7.38
2023-03-29T00:37:08.851Z,9.65
2023-03-29T00:39:42.061Z,9.07
2023-03-29T00:42:14.611Z,8.82
2023-03-29T00:45:18.883Z,7.45
2023-03-29T00:47:52.420Z,5.05
2023-03-29T00:50:29.846Z,10.15
2023-03-29T00:53:03.668Z,6.25
2023-03-29T00:55:38.215Z,10.50
2023-03-29T00:58:13.020Z,4.30
2023-03-29T01:00:48.572Z,8.65
2023-03-29T01:03:25.280Z,9.27
2023-03-29T01:06:01.259Z,8.15
2023-03-29T01:08:37.391Z,6.35
2023-03-29T01:11:11.468Z,9.15
2023-03-29T01:13:44.192Z,8.43
2023-03-29T01:16:15.613Z,8.15
2023-03-29T01:18:46.946Z,10.02
2023-03-29T01:21:32.413Z,6.40
2023-03-29T01:24:22.166Z,14.45
2023-03-29T01:27:00.692Z,8.82
2023-03-29T01:29:37.664Z,11.95
2023-03-29T01:32:11.280Z,17.42
2023-03-29T01:34:46.826Z,20.33
2023-03-29T01:37:24.713Z,17.52
2023-03-29T01:39:54.977Z,13.20
2023-03-29T01:42:33.587Z,15.70
2023-03-29T01:45:12.725Z,12.35
2023-03-29T01:47:50.372Z,7.13
2023-03-29T01:50:28.924Z,10.30
2023-03-29T01:53:00.900Z,6.78
2023-03-29T01:55:36.064Z,6.25
2023-03-29T01:58:08.387Z,5.63
2023-03-29T02:00:41.396Z,4.93
2023-03-29T02:03:15.046Z,5.35
2023-03-29T02:05:46.034Z,3.78
2023-03-29T02:08:17.829Z,4.53
2023-03-29T02:10:48.572Z,6.63
2023-03-29T02:13:18.167Z,12.07
2023-03-29T02:18:20.387Z,6.85
2023-03-29T02:20:52.050Z,5.60
2023-03-29T02:23:27.342Z,4.25
2023-03-29T02:25:58.848Z,8.30
2023-03-29T02:28:29.388Z,5.25
2023-03-29T02:31:26.239Z,5.18
2023-03-29T02:34:02.988Z,7.05
2023-03-29T02:36:36.072Z,7.15
2023-03-29T02:39:08.155Z,4.95
2023-03-29T02:41:39.610Z,4.55
2023-03-29T02:44:14.888Z,3.80
2023-03-29T02:46:46.693Z,5.70
2023-03-29T02:49:15.951Z,4.57
2023-03-29T02:51:48.479Z,5.97
2023-03-29T02:54:19.988Z,5.38
2023-03-29T02:56:56.101Z,7.32
2023-03-29T02:59:25.866Z,7.05
2023-03-29T03:01:56.715Z,5.88
2023-03-29T03:04:26.676Z,6.07
2023-03-29T03:06:56.152Z,10.25
2023-03-29T03:09:25.429Z,7.50
2023-03-29T03:11:55.499Z,5.38
2023-03-29T03:14:28.334Z,9.85
2023-03-29T03:17:04.421Z,5.82
2023-03-29T03:19:34.464Z,9.13
2023-03-29T03:22:06.008Z,8.57
2023-03-29T03:24:35.650Z,6.88
2023-03-29T03:27:05.413Z,8.02
2023-03-29T03:29:36.078Z,8.32
2023-03-29T03:32:22.848Z,8.45
2023-03-29T03:35:24.402Z,5.43
2023-03-29T03:37:53.862Z,5.50
2023-03-29T03:40:22.919Z,8.77
2023-03-29T03:42:52.379Z,8.68
2023-03-29T03:45:21.743Z,7.30
2023-03-29T03:48:05.168Z,5.72
2023-03-29T03:51:10.201Z,7.72
2023-03-29T03:53:39.826Z,8.48
2023-03-29T03:56:29.920Z,9.20
2023-03-29T03:59:11.324Z,5.93
2023-03-29T04:01:55.041Z,7.47
2023-03-29T04:04:28.750Z,7.43
2023-03-29T04:07:08.546Z,5.75
2023-03-29T04:09:56.745Z,6.90
2023-03-29T04:12:38.705Z,7.85
2023-03-29T04:15:10.566Z,6.40
2023-03-29T04:17:43.643Z,8.50
2023-03-29T04:20:37.429Z,9.27
2023-03-29T04:23:06.958Z,9.53
2023-03-29T04:25:38.485Z,8.57
2023-03-29T04:28:37.336Z,8.00
2023-03-29T04:31:15.807Z,10.10
2023-03-29T04:34:00.702Z,8.70
2023-03-29T04:36:32.819Z,9.43
2023-03-29T04:39:01.996Z,12.53
2023-03-29T04:41:32.724Z,8.37
2023-03-29T04:44:06.938Z,10.20
2023-03-29T04:46:40.313Z,17.80
2023-03-29T04:49:12.687Z,10.30
2023-03-29T04:51:46.579Z,11.17
2023-03-29T04:54:18.300Z,11.23
2023-03-29T04:57:03.532Z,10.20
2023-03-29T04:59:57.536Z,9.93
2023-03-29T05:02:46.719Z,8.43
2023-03-29T05:05:17.273Z,8.20
2023-03-29T05:07:50.813Z,9.23
2023-03-29T05:10:24.694Z,9.77
2023-03-29T05:12:56.241Z,8.57
2023-03-29T05:15:25.825Z,11.13
2023-03-29T05:17:55.393Z,8.63
2023-03-29T05:20:25.044Z,9.93
2023-03-29T05:22:57.136Z,18.00
2023-03-29T05:25:50.122Z,9.87
2023-03-29T05:28:19.723Z,6.87
2023-03-29T05:30:49.455Z,16.65
2023-03-29T05:33:23.819Z,8.60
2023-03-29T05:36:00.866Z,6.93
2023-03-29T05:38:33.976Z,9.35
2023-03-29T05:41:03.590Z,8.43
2023-03-29T05:43:51.572Z,9.33
2023-03-29T05:46:24.239Z,8.48
2023-03-29T05:48:56.740Z,12.30
2023-03-29T05:51:42.225Z,9.05
2023-03-29T05:54:14.071Z,8.63
2023-03-29T05:56:43.685Z,8.60
2023-03-29T05:59:13.873Z,8.65
2023-03-29T06:04:14.179Z,11.13
2023-03-29T06:09:26.771Z,7.03
2023-03-29T06:12:03.141Z,7.47
2023-03-29T06:14:38.943Z,9.82
2023-03-29T06:17:30.654Z,10.93
2023-03-29T06:22:31.812Z,6.15
2023-03-29T06:25:02.650Z,9.13
2023-03-29T06:27:35.286Z,9.90
2023-03-29T06:30:06.247Z,11.30
2023-03-29T06:32:37.542Z,14.30
2023-03-29T06:35:18.488Z,7.88
2023-03-29T06:37:54.590Z,14.30
2023-03-29T06:40:34.015Z,9.57
2023-03-29T06:43:03.403Z,8.25
2023-03-29T06:45:53.052Z,11.40
2023-03-29T06:48:29.400Z,6.35
2023-03-29T06:50:58.976Z,6.10
2023-03-29T06:53:31.459Z,4.85
2023-03-29T06:56:09.495Z,7.97
2023-03-29T06:58:39.202Z,7.82
2023-03-29T07:01:21.836Z,4.70
2023-03-29T07:04:04.807Z,5.80
2023-03-29T07:06:40.443Z,3.25
2023-03-29T07:09:09.608Z,7.57
2023-03-29T07:12:06.895Z,4.35
2023-03-29T07:14:36.144Z,6.72
2023-03-29T07:17:06.293Z,5.38
2023-03-29T07:19:37.763Z,8.32
2023-03-29T07:22:15.359Z,3.60
2023-03-29T07:24:52.288Z,7.55
2023-03-29T07:27:23.762Z,7.30
2023-03-29T07:29:52.994Z,8.55
2023-03-29T07:32:22.597Z,4.90
2023-03-29T07:35:04.907Z,6.00
2023-03-29T07:37:38.054Z,6.97
2023-03-29T07:40:12.971Z,6.88
2023-03-29T07:43:11.110Z,5.57
2023-03-29T07:45:42.362Z,4.22
2023-03-29T07:48:14.620Z,4.13
2023-03-29T07:50:55.938Z,16.05
2023-03-29T07:53:30.683Z,5.03
2023-03-29T07:56:01.868Z,3.83
2023-03-29T07:58:53.050Z,5.07
2023-03-29T08:01:22.920Z,9.60
2023-03-29T08:04:04.924Z,7.38
2023-03-29T08:06:57.020Z,5.47
2023-03-29T08:09:34.851Z,3.47
2023-03-29T08:12:04.646Z,4.55
2023-03-29T08:14:39.485Z,5.28
2023-03-29T08:17:16.048Z,5.28
2023-03-29T08:19:51.427Z,6.03
2023-03-29T08:22:26.283Z,4.78
2023-03-29T08:25:21.984Z,3.60
2023-03-29T08:27:54.732Z,7.78
2023-03-29T08:30:34.833Z,3.93
2023-03-29T08:33:05.223Z,3.33
2023-03-29T08:35:34.797Z,5.05
2023-03-29T08:38:27.217Z,4.55
2023-03-29T08:40:57.295Z,3.00
2023-03-29T08:43:47.641Z,4.10
2023-03-29T08:46:45.903Z,2.60
2023-03-29T08:49:32.829Z,3.60
2023-03-29T08:52:13.059Z,4.63
2023-03-29T08:54:46.912Z,3.42
2023-03-29T08:57:48.457Z,4.35
2023-03-29T09:00:36.852Z,5.43
2023-03-29T09:03:16.126Z,3.28
2023-03-29T09:05:50.008Z,4.75
2023-03-29T09:08:25.468Z,4.65
2023-03-29T09:11:13.025Z,5.45
2023-03-29T09:13:54.831Z,5.63
2023-03-29T09:16:33.560Z,11.18
2023-03-29T09:19:17.545Z,4.85
2023-03-29T09:21:53.161Z,5.32
2023-03-29T09:24:42.821Z,3.63
2023-03-29T09:27:31.632Z,7.60
2023-03-29T09:30:26.002Z,4.97
2023-03-29T09:33:08.111Z,5.35
2023-03-29T09:36:03.041Z,8.00
2023-03-29T09:38:35.804Z,4.22
2023-03-29T09:41:14.845Z,6.32
2023-03-29T09:46:26.336Z,4.43
2023-03-29T09:48:57.233Z,5.65
2023-03-29T09:51:31.068Z,6.22
2023-03-29T09:54:01.374Z,5.90
2023-03-29T09:56:56.131Z,8.05
2023-03-29T09:59:26.569Z,4.93
2023-03-29T10:02:06.612Z,3.33
2023-03-29T10:04:37.026Z,4.28
2023-03-29T10:07:08.938Z,6.63
2023-03-29T10:09:38.616Z,7.10
2023-03-29T10:12:23.133Z,5.03
2023-03-29T10:14:56.108Z,4.80
2023-03-29T10:17:28.092Z,5.65
2023-03-29T10:20:02.194Z,3.85
2023-03-29T10:22:40.510Z,3.55
2023-03-29T10:25:15.447Z,4.32
2023-03-29T10:27:47.508Z,4.80
2023-03-29T10:30:25.571Z,6.65
2023-03-29T10:32:59.820Z,5.03
2023-03-29T10:35:33.955Z,3.55
2023-03-29T10:38:08.735Z,7.18
2023-03-29T10:40:44.374Z,6.60
2023-03-29T10:43:21.534Z,5.30
2023-03-29T10:45:52.426Z,3.83
2023-03-29T10:48:28.982Z,4.15
2023-03-29T10:51:02.599Z,3.13
2023-03-29T10:53:35.376Z,3.92
2023-03-29T10:56:33.493Z,3.63
2023-03-29T10:59:21.676Z,5.93
2023-03-29T11:02:21.080Z,3.22
2023-03-29T11:04:58.463Z,3.13
2023-03-29T11:07:32.438Z,2.05
2023-03-29T11:10:21.077Z,2.75
2023-03-29T11:12:56.086Z,4.22
2023-03-29T11:15:38.386Z,3.95
2023-03-29T11:18:30.566Z,1.83
2023-03-29T11:21:11.704Z,5.72
2023-03-29T11:23:49.099Z,3.05
2023-03-29T11:26:25.281Z,3.38
2023-03-29T11:28:59.516Z,3.75
2023-03-29T11:31:40.559Z,1.83
2023-03-29T11:34:24.691Z,2.55
2023-03-29T11:37:01.125Z,3.08
2023-03-29T11:39:44.913Z,2.83
2023-03-29T11:42:21.485Z,4.80
2023-03-29T11:44:55.124Z,5.10
2023-03-29T11:47:29.078Z,4.55
2023-03-29T11:50:02.220Z,7.82
2023-03-29T11:52:38.809Z,4.40
2023-03-29T11:55:13.508Z,4.38
2023-03-29T11:57:49.208Z,7.32
2023-03-29T12:00:23.173Z,4.30
2023-03-29T12:02:59.639Z,6.13
2023-03-29T12:05:36.200Z,2.70
2023-03-29T12:08:09.749Z,2.97
2023-03-29T12:10:43.464Z,6.72
2023-03-29T12:13:22.576Z,6.75
2023-03-29T12:15:58.961Z,5.55
2023-03-29T12:18:33.545Z,3.55
2023-03-29T12:21:08.288Z,3.70
2023-03-29T12:23:37.938Z,5.30
2023-03-29T12:26:21.096Z,5.45
2023-03-29T12:29:07.348Z,2.72
2023-03-29T12:31:45.192Z,6.03
2023-03-29T12:34:36.034Z,6.07
2023-03-29T12:37:47.084Z,3.03
2023-03-29T12:40:42.977Z,5.17
2023-03-29T12:43:34.351Z,6.68
2023-03-29T12:46:22.521Z,7.07
2023-03-29T12:48:57.254Z,4.05
2023-03-29T12:51:32.792Z,6.47
2023-03-29T12:54:08.660Z,6.95
2023-03-29T12:56:42.753Z,4.53
2023-03-29T12:59:27.204Z,5.20
2023-03-29T13:02:05.433Z,3.33
2023-03-29T13:04:49.514Z,6.38
2023-03-29T13:07:31.936Z,5.80
2023-03-29T13:10:04.037Z,3.55
2023-03-29T13:12:41.933Z,5.45
2023-03-29T13:15:26.343Z,5.43
2023-03-29T13:18:10.941Z,5.90
2023-03-29T13:20:48.975Z,4.53
2023-03-29T13:23:34.007Z,6.03
2023-03-29T13:26:17.525Z,8.63
2023-03-29T13:29:03.439Z,5.72
2023-03-29T13:31:38.839Z,8.32
2023-03-29T13:34:22.699Z,8.07
2023-03-29T13:37:02.534Z,5.00
2023-03-29T13:39:36.747Z,5.97
2023-03-29T13:42:19.918Z,8.32
2023-03-29T13:44:50.397Z,7.60
2023-03-29T13:47:43.192Z,6.80
2023-03-29T13:50:30.434Z,4.93
2023-03-29T13:53:05.184Z,4.20
2023-03-29T13:55:43.351Z,8.60
2023-03-29T13:58:18.645Z,8.60
2023-03-29T14:00:52.238Z,5.93
2023-03-29T14:03:29.714Z,11.73
2023-03-29T14:06:04.858Z,8.45
2023-03-29T14:08:41.097Z,7.68
2023-03-29T14:11:21.325Z,8.00
2023-03-29T14:13:53.858Z,8.57
2023-03-29T14:16:24.492Z,5.72
2023-03-29T14:18:54.375Z,8.15
2023-03-29T14:21:25.111Z,10.07
2023-03-29T14:23:59.218Z,8.18
2023-03-29T14:26:33.435Z,7.88
2023-03-29T14:29:04.479Z,13.32
2023-03-29T14:31:37.268Z,6.60
2023-03-29T14:34:08.346Z,6.05
2023-03-29T14:36:40.899Z,7.20
2023-03-29T14:39:16.676Z,5.13
2023-03-29T14:41:52.712Z,7.25
2023-03-29T14:44:25.878Z,6.97
2023-03-29T14:46:56.105Z,9.32
2023-03-29T14:49:26.319Z,10.63
2023-03-29T14:51:57.937Z,14.23
2023-03-29T14:54:29.932Z,11.75
2023-03-29T14:56:59.990Z,11.45
2023-03-29T14:59:36.964Z,7.82
2023-03-29T15:02:22.991Z,7.90
2023-03-29T15:04:58.147Z,7.53
2023-03-29T15:07:30.590Z,8.98
2023-03-29T15:10:02.384Z,7.75
2023-03-29T15:12:34.930Z,6.63
2023-03-29T15:15:07.054Z,11.75
2023-03-29T15:17:51.048Z,5.90
2023-03-29T15:20:25.634Z,11.32
2023-03-29T15:23:02.363Z,5.97
2023-03-29T15:25:37.334Z,9.35
2023-03-29T15:28:07.608Z,9.57
2023-03-29T15:30:39.850Z,10.18
2023-03-29T15:33:17.889Z,10.48
2023-03-29T15:35:51.429Z,8.93
2023-03-29T15:38:30.197Z,14.70
2023-03-29T15:41:06.640Z,7.40
2023-03-29T15:43:36.321Z,6.60
2023-03-29T15:46:05.873Z,10.45
2023-03-29T15:48:35.878Z,9.18
2023-03-29T15:51:08.349Z,7.38
2023-03-29T15:53:39.821Z,8.18
2023-03-29T15:56:15.830Z,10.65
2023-03-29T15:58:45.699Z,10.50
2023-03-29T16:01:33.497Z,9.38
2023-03-29T16:04:03.502Z,12.73
2023-03-29T16:06:33.509Z,9.15
2023-03-29T16:09:05.351Z,12.95
2023-03-29T16:11:34.893Z,11.27
2023-03-29T16:14:04.595Z,9.65
2023-03-29T16:16:34.908Z,6.43
2023-03-29T16:19:04.998Z,7.30
2023-03-29T16:21:34.130Z,9.45
2023-03-29T16:24:07.076Z,8.18
2023-03-29T16:26:36.211Z,8.63
2023-03-29T16:29:05.606Z,8.18
2023-03-29T16:31:35.004Z,8.82
2023-03-29T16:34:04.784Z,9.85
2023-03-29T16:36:35.065Z,9.45
2023-03-29T16:39:06.276Z,11.25
2023-03-29T16:41:35.553Z,10.10
2023-03-29T16:44:05.500Z,13.32
2023-03-29T16:46:36.152Z,9.15
2023-03-29T16:49:08.940Z,6.47
2023-03-29T16:51:38.084Z,8.18
2023-03-29T16:54:09.281Z,9.05
2023-03-29T16:56:38.529Z,12.65
2023-03-29T16:59:09.166Z,10.38
2023-03-29T17:01:38.914Z,9.73
2023-03-29T17:04:08.848Z,10.43
2023-03-29T17:09:09.746Z,9.15
2023-03-29T17:11:39.293Z,12.27
2023-03-29T17:14:10.473Z,9.88
2023-03-29T17:16:39.789Z,16.88
2023-03-29T17:19:09.558Z,10.98
2023-03-29T17:21:38.651Z,15.27
2023-03-29T17:24:10.829Z,10.23
2023-03-29T17:26:40.056Z,8.07
2023-03-29T17:29:09.598Z,9.45
2023-03-29T17:31:46.873Z,10.23
2023-03-29T17:34:16.618Z,10.65
2023-03-29T17:36:46.880Z,12.00
2023-03-29T17:39:18.779Z,12.85
2023-03-29T17:41:49.171Z,12.80
2023-03-29T17:44:19.148Z,11.93
2023-03-29T17:46:48.605Z,14.82
2023-03-29T17:49:18.167Z,17.75
2023-03-29T17:51:48.151Z,15.75
2023-03-29T17:54:19.120Z,16.80
2023-03-29T17:56:48.913Z,16.20
2023-03-29T17:59:18.395Z,18.65
2023-03-29T18:01:47.587Z,15.80
2023-03-29T18:04:16.980Z,17.77
2023-03-29T18:06:47.072Z,16.85
2023-03-29T18:09:18.118Z,14.85
2023-03-29T18:11:47.956Z,21.60
2023-03-29T18:14:17.506Z,20.35
2023-03-29T18:16:46.989Z,20.27
2023-03-29T18:19:17.044Z,15.38
2023-03-29T18:21:46.242Z,12.05
2023-03-29T18:24:15.676Z,17.35
2023-03-29T18:26:46.470Z,16.70
2023-03-29T18:29:16.561Z,18.83
2023-03-29T18:31:46.599Z,14.77
2023-03-29T18:34:16.232Z,15.88
2023-03-29T18:36:45.495Z,18.00
2023-03-29T18:39:15.315Z,19.27
2023-03-29T18:41:46.374Z,19.75
2023-03-29T18:44:15.887Z,18.75
2023-03-29T18:46:45.839Z,18.27
2023-03-29T18:49:15.194Z,17.65
2023-03-29T18:51:47.619Z,17.75
2023-03-29T18:54:19.772Z,17.63
2023-03-29T18:56:50.568Z,14.52
2023-03-29T18:59:20.195Z,18.25
2023-03-29T19:01:49.445Z,17.65
2023-03-29T19:04:20.057Z,30.60
2023-03-29T19:06:49.569Z,25.80
2023-03-29T19:11:51.138Z,16.90
2023-03-29T19:14:23.734Z,19.23
2023-03-29T19:16:53.660Z,15.75
2023-03-29T19:19:26.553Z,17.35
2023-03-29T19:21:59.009Z,17.25
2023-03-29T19:24:30.230Z,21.00
2023-03-29T19:27:01.838Z,16.10
2023-03-29T19:29:31.565Z,19.20
2023-03-29T19:32:00.936Z,17.30
2023-03-29T19:37:00.917Z,17.25
2023-03-29T19:39:30.518Z,14.85
2023-03-29T19:42:01.038Z,17.45
2023-03-29T19:44:31.012Z,22.73
2023-03-29T19:47:00.358Z,17.40
2023-03-29T19:49:30.294Z,21.40
2023-03-29T19:52:00.880Z,23.05
2023-03-29T19:54:30.788Z,21.63
2023-03-29T19:59:32.235Z,17.25
2023-03-29T20:02:02.455Z,19.83
2023-03-29T20:04:33.481Z,24.13
2023-03-29T20:07:02.856Z,24.17
2023-03-29T20:09:32.714Z,22.17
2023-03-29T20:12:03.471Z,24.20
2023-03-29T20:14:34.311Z,22.17
2023-03-29T20:17:04.513Z,22.70
2023-03-29T20:19:36.612Z,22.40
2023-03-29T20:22:08.042Z,22.88
2023-03-29T20:24:37.847Z,22.48
2023-03-29T20:27:08.693Z,29.02
2023-03-29T20:29:38.331Z,29.92
2023-03-29T20:32:07.655Z,26.00
2023-03-29T20:34:37.228Z,25.98
2023-03-29T20:37:06.512Z,24.17
2023-03-29T20:39:35.956Z,37.53
2023-03-29T20:42:09.899Z,30.70
2023-03-29T20:44:39.311Z,28.33
2023-03-29T20:47:08.641Z,23.80
2023-03-29T20:49:38.798Z,23.33
2023-03-29T20:52:13.890Z,22.98
2023-03-29T20:54:44.724Z,21.52
2023-03-29T20:57:16.858Z,18.42
2023-03-29T20:59:48.229Z,22.10
2023-03-29T21:02:21.273Z,17.27
2023-03-29T21:04:52.095Z,19.33
2023-03-29T21:07:21.906Z,19.98
2023-03-29T21:09:51.377Z,16.05
2023-03-29T21:12:23.612Z,19.70
2023-03-29T21:14:53.250Z,22.00
2023-03-29T21:17:22.714Z,20.10
2023-03-29T21:19:53.277Z,23.30
2023-03-29T21:22:23.304Z,17.00
2023-03-29T21:24:53.091Z,18.55
2023-03-29T21:27:25.791Z,20.55
2023-03-29T21:29:55.405Z,18.70
2023-03-29T21:32:24.700Z,16.65
2023-03-29T21:34:54.250Z,18.13
2023-03-29T21:37:23.663Z,22.45
2023-03-29T21:39:53.093Z,16.42
2023-03-29T21:42:23.866Z,15.85
2023-03-29T21:44:53.289Z,22.00
2023-03-29T21:47:22.478Z,18.27
2023-03-29T21:49:51.794Z,19.17
2023-03-29T21:52:21.589Z,14.95
2023-03-29T21:54:51.308Z,18.02
2023-03-29T21:57:20.594Z,20.20
2023-03-29T22:02:20.404Z,19.55
2023-03-29T22:04:50.063Z,13.95
2023-03-29T22:07:22.829Z,17.38
2023-03-29T22:09:52.360Z,16.05
2023-03-29T22:12:22.817Z,19.38
2023-03-29T22:14:54.049Z,18.60
2023-03-29T22:17:26.844Z,17.23
2023-03-29T22:19:57.833Z,16.90
2023-03-29T22:22:27.095Z,17.48
2023-03-29T22:24:57.079Z,16.17
2023-03-29T22:27:26.353Z,21.10
2023-03-29T22:29:58.781Z,18.05
2023-03-29T22:32:29.810Z,20.08
2023-03-29T22:34:59.643Z,19.73
2023-03-29T22:37:28.728Z,24.73
2023-03-29T22:39:58.195Z,20.88
2023-03-29T22:42:27.389Z,15.07
2023-03-29T22:44:58.450Z,19.90
2023-03-29T22:47:27.702Z,21.17
2023-03-29T22:49:57.189Z,15.82
2023-03-29T22:52:27.155Z,23.02
2023-03-29T22:54:56.728Z,14.15
2023-03-29T22:57:25.888Z,16.05
2023-03-29T22:59:55.420Z,20.48
2023-03-29T23:02:26.021Z,19.17
2023-03-29T23:04:55.741Z,15.35
2023-03-29T23:07:24.893Z,15.73
2023-03-29T23:09:54.312Z,18.65
2023-03-29T23:12:24.623Z,24.55
2023-03-29T23:14:55.882Z,19.05
2023-03-29T23:17:26.473Z,19.92
2023-03-29T23:19:56.686Z,17.70
2023-03-29T23:22:26.227Z,23.48
2023-03-29T23:24:55.738Z,17.58
2023-03-29T23:27:26.205Z,21.55
2023-03-29T23:29:56.317Z,21.55
2023-03-29T23:34:56.270Z,22.05
2023-03-29T23:37:25.315Z,19.98
2023-03-29T23:39:54.872Z,20.02
2023-03-29T23:42:24.040Z,17.60
2023-03-29T23:47:22.755Z,21.30
2023-03-29T23:49:53.585Z,19.15
2023-03-29T23:52:23.180Z,19.40
2023-03-29T23:54:52.587Z,20.38
2023-03-29T23:57:21.817Z,23.20
